Главная страница
METAR-TAF:

METAR-TAF

Аэропорты :

Лекнес, Норвегия

широта: 68-09N, долгота: 013-37E, высота над уровнем моря: 2 м

Текущие метеонаблюдения

Эта сводка был подготовлена 1 час и 18 минут назад, в 17:50 UTC
Ветер 14 Узел от северо-северо-восточный
Температура 11°C
Влажность 82%
Давление 1013 hPa
Видимость 10 км и более
небольшая облачность на высоте 1500 фута

METAR: ENLK 131750Z 03014KT 9999 FEW015 11/08 Q1013

Время: 21:08 (19:08 UTC)


TAF: отсутствует

Метеонаблюдения и прогнозы для более 4000 аэропортов (сводки METAR и TAF).

Имеющиеся станции представлены на карте желтыми и красными точками.

Чтобы увидеть название станции, наведите на нее мышь.

Затем щелкните, чтобы увидеть метеонаблюдения и метеопрогнозы.

Управление картой: чтобы увеличить масштаб, щелкните зеленые кнопки с черным крестиком; чтобы уменьшить масштаб, щелкните зеленую кнопку с тире; для просмотра соседних карт щелкайте зеленые стрелки.


METAR-TAF: